Aérodrome :
LOGIN :

S'inscrire | Disclaimer

   EN    FR    IT 

 










Légende :    VFR   VFR Marginal   IFR   IFR Intensif   IFR Très Intensif
Visi : 
Plafond : 
>= 8 km
>= 3000ft
5 à 8 km
1000 à 3000 ft
1500m à 5 km
500 à 1000 ft
800 à 1500m
200 à 500 ft
< 800m
< 200 ft
Symboles :   Orages  Brouillard  Fortes neiges  Fortes précipitations  Vent > 20 kt
SIGMETs :   Divers  Orages  Givrage  Turbulence  Onde Orograph.  Cendres Volcan.







- Altitude de l'aérodrome : 796 ft
- Code IATA : SYT
- Voir les cartes d'approche


LFLN - Saint-Yan

DERNIER METAR :
  • 170730Z AUTO 26010KT 240V300 9999 FEW021 20/15 Q1019 NOSIG

METARs EXPIRÉS :
  • 170700Z AUTO 28010KT 250V310 CAVOK 20/15 Q1019 NOSIG
  • 170630Z AUTO 27009KT 240V310 CAVOK 19/15 Q1019 NOSIG
  • 170600Z AUTO 27006KT 230V310 CAVOK 19/15 Q1019 NOSIG
  • 170530Z AUTO 27006KT 230V290 CAVOK 18/15 Q1018 NOSIG
  • 170500Z AUTO 27004KT 240V300 CAVOK 17/14 Q1018

TAF TAF LFLN
Valide du 17 à 06h jusqu'au 17 à 15h UTC


170500Z 1706/1715 VRB02KT CAVOK
PROB40
TEMPO 1710/1713 BKN030
Pas de NOTAMs connus pour ce terrain.



MET'MAP, la Météo Aéronautique d'un coup d'oeil ! - Copyright ORBIFLY Décembre 2007 - Disclaimer

ORBIFLY MET'MAP TEAM :

Programmation & Développement : Alexandra Zaïnal
Conception & Développement : Baudouin d'Aumeries
Co-Programmation & Développement : Marc-Olivier Méhu
Soutien technique & logistique : Manuel Goepfert

Contact : metmap@orbifly.com




SOURCES & CREDITS :

   NOAA